An Xiu Shan — BRQV — position and weather

sailwx.info

Track history (hours):
 
Tides and Currents Weather Stations Pressure Air Temp Water Temp Dewpoint Dewpoint Depression Visibility Wind Speed Wind Dir Waves Ship Positions

An Xiu Shan

Last reported at 2017-Jan-11 08:33 UTC. Time now 2017-Jan-22 08:12 UTC.
Position N 37°48' E 121°53'.
Warning: this ship's position is 10 days out of date.

Length 199 m; draft 12.6 m.

Type: Cargo ship. MMSI: 413195000.

Date/timePositionNaut miles runAvg speedWind from/ knotsBaromVisibWave heightAir tempDewpointWater temp
2017-Jan-11 08:33N 37°48' E 121°53'1010.4
2017-Jan-11 07:33N 37°49' E 121°39'1110.8
2017-Jan-11 06:33N 37°52' E 121°26'1110.9
2017-Jan-11 05:33N 37°54' E 121°13'  
2017-Jan-03 22:10N 38°39' E 120°31'812.4
2017-Jan-03 21:33N 38°38' E 120°41'1212.2
2017-Jan-03 20:33N 38°35' E 120°56'1313.1
2017-Jan-03 19:33N 38°29' E 121°11'1412.9
2017-Jan-03 18:29N 38°21' E 121°26'4011.9
2017-Jan-03 15:06N 37°59' E 122°08'39811.1
2017-Jan-02 03:08N 31°22' E 122°35'6 9.7
2017-Jan-02 02:34N 31°16' E 122°34'11 9.7
2017-Jan-02 01:28N 31°06' E 122°32'9 9.3
2017-Jan-02 00:33N 31°05' E 122°22'1312.8
2017-Jan-01 23:33N 31°12' E 122°09'1414.3
2017-Jan-01 22:34N 31°16' E 121°53'1313.1
2017-Jan-01 21:34N 31°21' E 121°39'10 9.7
2017-Jan-01 20:33N 31°26' E 121°29'8 8.5
2017-Jan-01 19:34N 31°32' E 121°22'1010.1
2017-Jan-01 18:34N 31°39' E 121°14'1110.9
2017-Jan-01 17:34N 31°46' E 121°04'1311.3
2017-Jan-01 16:26N 31°54' E 120°53'  
Track history (hours):
 
Tides and Currents Weather Stations Pressure Air Temp Water Temp Dewpoint Dewpoint Depression Visibility Wind Speed Wind Dir Waves Ship Positions

An Xiu Shan

Last reported at 2017-Jan-11 08:33 UTC. Time now 2017-Jan-22 08:12 UTC.
Position N 37°48' E 121°53'.
Warning: this ship's position is 10 days out of date.

Length 199 m; draft 12.6 m.

Type: Cargo ship. MMSI: 413195000.

Date/timePositionNaut miles runAvg speedWind from/ knotsBaromVisibWave heightAir tempDewpointWater temp
2017-Jan-11 08:33N 37°48' E 121°53'1010.4
2017-Jan-11 07:33N 37°49' E 121°39'1110.8
2017-Jan-11 06:33N 37°52' E 121°26'1110.9
2017-Jan-11 05:33N 37°54' E 121°13'  
2017-Jan-03 22:10N 38°39' E 120°31'812.4
2017-Jan-03 21:33N 38°38' E 120°41'1212.2
2017-Jan-03 20:33N 38°35' E 120°56'1313.1
2017-Jan-03 19:33N 38°29' E 121°11'1412.9
2017-Jan-03 18:29N 38°21' E 121°26'4011.9
2017-Jan-03 15:06N 37°59' E 122°08'39811.1
2017-Jan-02 03:08N 31°22' E 122°35'6 9.7
2017-Jan-02 02:34N 31°16' E 122°34'11 9.7
2017-Jan-02 01:28N 31°06' E 122°32'9 9.3
2017-Jan-02 00:33N 31°05' E 122°22'1312.8
2017-Jan-01 23:33N 31°12' E 122°09'1414.3
2017-Jan-01 22:34N 31°16' E 121°53'1313.1
2017-Jan-01 21:34N 31°21' E 121°39'10 9.7
2017-Jan-01 20:33N 31°26' E 121°29'8 8.5
2017-Jan-01 19:34N 31°32' E 121°22'1010.1
2017-Jan-01 18:34N 31°39' E 121°14'1110.9
2017-Jan-01 17:34N 31°46' E 121°04'1311.3
2017-Jan-01 16:26N 31°54' E 120°53'  

Dump ship's entire track history